sensor_id;sensor_type;location;lat;lon;timestamp;pressure;altitude;pressure_sealevel;temperature;humidity
36748;BME280;22716;51.556;5.080;2023-12-04T00:02:06;100523.09;;;1.35;100.00
36748;BME280;22716;51.556;5.080;2023-12-04T00:04:37;100510.91;;;1.28;100.00
36748;BME280;22716;51.556;5.080;2023-12-04T00:07:06;100510.03;;;1.28;100.00
36748;BME280;22716;51.556;5.080;2023-12-04T00:09:34;100519.63;;;1.33;100.00
36748;BME280;22716;51.556;5.080;2023-12-04T00:12:04;100512.78;;;1.35;100.00
36748;BME280;22716;51.556;5.080;2023-12-04T00:14:33;100519.69;;;1.36;100.00
36748;BME280;22716;51.556;5.080;2023-12-04T00:17:01;100508.47;;;1.36;100.00
36748;BME280;22716;51.556;5.080;2023-12-04T00:19:30;100503.31;;;1.34;100.00
36748;BME280;22716;51.556;5.080;2023-12-04T00:22:01;100508.56;;;1.39;100.00
36748;BME280;22716;51.556;5.080;2023-12-04T00:24:30;100493.81;;;1.33;100.00
36748;BME280;22716;51.556;5.080;2023-12-04T00:26:58;100493.88;;;1.36;100.00
36748;BME280;22716;51.556;5.080;2023-12-04T00:29:27;100492.06;;;1.32;100.00
36748;BME280;22716;51.556;5.080;2023-12-04T00:31:55;100498.22;;;1.37;100.00
36748;BME280;22716;51.556;5.080;2023-12-04T00:34:25;100486.91;;;1.32;100.00
36748;BME280;22716;51.556;5.080;2023-12-04T00:36:53;100489.53;;;1.34;100.00
36748;BME280;22716;51.556;5.080;2023-12-04T00:39:25;100483.53;;;1.35;100.00
36748;BME280;22716;51.556;5.080;2023-12-04T00:41:53;100464.53;;;1.31;100.00
36748;BME280;22716;51.556;5.080;2023-12-04T00:44:22;100459.38;;;1.31;100.00
36748;BME280;22716;51.556;5.080;2023-12-04T00:46:50;100464.47;;;1.28;100.00
36748;BME280;22716;51.556;5.080;2023-12-04T00:49:19;100469.63;;;1.28;100.00
36748;BME280;22716;51.556;5.080;2023-12-04T00:51:47;100472.22;;;1.30;100.00
36748;BME280;22716;51.556;5.080;2023-12-04T00:54:16;100469.69;;;1.31;100.00
36748;BME280;22716;51.556;5.080;2023-12-04T00:56:47;100462.78;;;1.30;100.00
36748;BME280;22716;51.556;5.080;2023-12-04T00:59:15;100467.06;;;1.30;100.00
36748;BME280;22716;51.556;5.080;2023-12-04T01:01:44;100457.59;;;1.30;100.00
36748;BME280;22716;51.556;5.080;2023-12-04T01:04:12;100455.06;;;1.32;100.00
36748;BME280;22716;51.556;5.080;2023-12-04T01:06:41;100466.31;;;1.35;100.00
36748;BME280;22716;51.556;5.080;2023-12-04T01:09:09;100455.97;;;1.35;100.00
36748;BME280;22716;51.556;5.080;2023-12-04T01:11:38;100457.75;;;1.36;100.00
36748;BME280;22716;51.556;5.080;2023-12-04T01:14:09;100448.34;;;1.40;100.00
36748;BME280;22716;51.556;5.080;2023-12-04T01:16:38;100439.66;;;1.35;100.00
36748;BME280;22716;51.556;5.080;2023-12-04T01:19:07;100438.78;;;1.34;100.00
36748;BME280;22716;51.556;5.080;2023-12-04T01:21:36;100442.25;;;1.36;100.00
36748;BME280;22716;51.556;5.080;2023-12-04T01:24:05;100435.41;;;1.38;100.00
36748;BME280;22716;51.556;5.080;2023-12-04T01:26:33;100428.56;;;1.40;100.00
36748;BME280;22716;51.556;5.080;2023-12-04T01:29:02;100433.75;;;1.40;100.00
36748;BME280;22716;51.556;5.080;2023-12-04T01:31:33;100428.59;;;1.42;100.00
36748;BME280;22716;51.556;5.080;2023-12-04T01:34:02;100427.69;;;1.40;100.00
36748;BME280;22716;51.556;5.080;2023-12-04T01:36:30;100426.88;;;1.41;100.00
36748;BME280;22716;51.556;5.080;2023-12-04T01:38:59;100426.06;;;1.45;100.00
36748;BME280;22716;51.556;5.080;2023-12-04T01:41:29;100420.03;;;1.44;100.00
36748;BME280;22716;51.556;5.080;2023-12-04T01:43:57;100420.91;;;1.43;100.00
36748;BME280;22716;51.556;5.080;2023-12-04T01:46:26;100407.03;;;1.40;100.00
36748;BME280;22716;51.556;5.080;2023-12-04T01:48:58;100413.16;;;1.43;100.00
36748;BME280;22716;51.556;5.080;2023-12-04T01:51:29;100414.03;;;1.44;100.00
36748;BME280;22716;51.556;5.080;2023-12-04T01:53:59;100404.53;;;1.44;100.00
36748;BME280;22716;51.556;5.080;2023-12-04T01:56:29;100409.69;;;1.44;100.00
36748;BME280;22716;51.556;5.080;2023-12-04T01:58:58;100405.41;;;1.43;100.00
36748;BME280;22716;51.556;5.080;2023-12-04T02:01:27;100401.06;;;1.42;100.00
36748;BME280;22716;51.556;5.080;2023-12-04T02:03:59;100397.59;;;1.42;100.00
36748;BME280;22716;51.556;5.080;2023-12-04T02:06:28;100402.81;;;1.43;100.00
36748;BME280;22716;51.556;5.080;2023-12-04T02:08:57;100386.47;;;1.43;100.00
36748;BME280;22716;51.556;5.080;2023-12-04T02:11:25;100383.03;;;1.44;100.00
36748;BME280;22716;51.556;5.080;2023-12-04T02:13:54;100370.03;;;1.39;100.00
36748;BME280;22716;51.556;5.080;2023-12-04T02:16:26;100370.03;;;1.39;100.00
36748;BME280;22716;51.556;5.080;2023-12-04T02:18:58;100369.22;;;1.42;100.00
36748;BME280;22716;51.556;5.080;2023-12-04T02:21:27;100374.38;;;1.42;100.00
36748;BME280;22716;51.556;5.080;2023-12-04T02:23:58;100373.59;;;1.46;100.00
36748;BME280;22716;51.556;5.080;2023-12-04T02:26:31;100370.16;;;1.45;100.00
36748;BME280;22716;51.556;5.080;2023-12-04T02:29:07;100370.03;;;1.39;100.00
36748;BME280;22716;51.556;5.080;2023-12-04T02:31:37;100359.75;;;1.42;100.00
36748;BME280;22716;51.556;5.080;2023-12-04T02:34:08;100366.69;;;1.43;100.00
36748;BME280;22716;51.556;5.080;2023-12-04T02:36:39;100359.81;;;1.44;100.00
36748;BME280;22716;51.556;5.080;2023-12-04T02:39:12;100352.91;;;1.44;100.00
36748;BME280;22716;51.556;5.080;2023-12-04T02:41:41;100350.38;;;1.46;100.00
36748;BME280;22716;51.556;5.080;2023-12-04T02:44:09;100342.63;;;1.46;100.00
36748;BME280;22716;51.556;5.080;2023-12-04T02:46:38;100350.44;;;1.49;100.00
36748;BME280;22716;51.556;5.080;2023-12-04T02:49:06;100345.22;;;1.47;100.00
36748;BME280;22716;51.556;5.080;2023-12-04T02:51:35;100340.16;;;1.52;100.00
36748;BME280;22716;51.556;5.080;2023-12-04T02:54:03;100329.84;;;1.52;100.00
36748;BME280;22716;51.556;5.080;2023-12-04T02:56:35;100319.47;;;1.50;100.00
36748;BME280;22716;51.556;5.080;2023-12-04T02:59:03;100330.72;;;1.52;100.00
36748;BME280;22716;51.556;5.080;2023-12-04T03:01:32;100315.16;;;1.51;100.00
36748;BME280;22716;51.556;5.080;2023-12-04T03:04:00;100314.28;;;1.50;100.00
36748;BME280;22716;51.556;5.080;2023-12-04T03:06:29;100310.88;;;1.53;100.00
36748;BME280;22716;51.556;5.080;2023-12-04T03:08:58;100314.34;;;1.53;100.00
36748;BME280;22716;51.556;5.080;2023-12-04T03:11:27;100299.63;;;1.46;100.00
36748;BME280;22716;51.556;5.080;2023-12-04T03:14:00;100296.22;;;1.50;100.00
36748;BME280;22716;51.556;5.080;2023-12-04T03:16:28;100293.69;;;1.53;100.00
36748;BME280;22716;51.556;5.080;2023-12-04T03:18:57;100292.88;;;1.56;100.00
36748;BME280;22716;51.556;5.080;2023-12-04T03:21:26;100283.34;;;1.52;100.00
36748;BME280;22716;51.556;5.080;2023-12-04T03:23:54;100289.41;;;1.52;100.00
36748;BME280;22716;51.556;5.080;2023-12-04T03:26:23;100285.94;;;1.53;100.00
36748;BME280;22716;51.556;5.080;2023-12-04T03:28:51;100273.03;;;1.52;100.00
36748;BME280;22716;51.556;5.080;2023-12-04T03:31:23;100272.13;;;1.50;100.00
36748;BME280;22716;51.556;5.080;2023-12-04T03:33:53;100263.53;;;1.49;100.00
36748;BME280;22716;51.556;5.080;2023-12-04T03:36:22;100274.75;;;1.51;100.00
36748;BME280;22716;51.556;5.080;2023-12-04T03:38:50;100266.16;;;1.52;100.00
36748;BME280;22716;51.556;5.080;2023-12-04T03:41:19;100269.53;;;1.50;100.00
36748;BME280;22716;51.556;5.080;2023-12-04T03:43:48;100261.81;;;1.51;100.00
36748;BME280;22716;51.556;5.080;2023-12-04T03:46:17;100247.94;;;1.43;100.00
36748;BME280;22716;51.556;5.080;2023-12-04T03:48:48;100253.16;;;1.48;100.00
36748;BME280;22716;51.556;5.080;2023-12-04T03:51:16;100260.03;;;1.47;100.00
36748;BME280;22716;51.556;5.080;2023-12-04T03:53:45;100248.88;;;1.48;100.00
36748;BME280;22716;51.556;5.080;2023-12-04T03:56:13;100246.22;;;1.45;100.00
36748;BME280;22716;51.556;5.080;2023-12-04T03:58:42;100255.78;;;1.49;100.00
36748;BME280;22716;51.556;5.080;2023-12-04T04:01:11;100234.16;;;1.43;100.00
36748;BME280;22716;51.556;5.080;2023-12-04T04:03:39;100239.28;;;1.41;100.00
36748;BME280;22716;51.556;5.080;2023-12-04T04:06:11;100234.16;;;1.44;100.00
36748;BME280;22716;51.556;5.080;2023-12-04T04:08:40;100229.88;;;1.45;100.00
36748;BME280;22716;51.556;5.080;2023-12-04T04:11:08;100228.16;;;1.45;100.00
36748;BME280;22716;51.556;5.080;2023-12-04T04:13:37;100223.84;;;1.44;100.00
36748;BME280;22716;51.556;5.080;2023-12-04T04:16:07;100224.75;;;1.46;100.00
36748;BME280;22716;51.556;5.080;2023-12-04T04:18:36;100222.13;;;1.45;100.00
36748;BME280;22716;51.556;5.080;2023-12-04T04:21:05;100222.13;;;1.43;100.00
36748;BME280;22716;51.556;5.080;2023-12-04T04:23:36;100217.78;;;1.42;100.00
36748;BME280;22716;51.556;5.080;2023-12-04T04:26:05;100206.59;;;1.40;100.00
36748;BME280;22716;51.556;5.080;2023-12-04T04:28:34;100200.50;;;1.38;100.00
36748;BME280;22716;51.556;5.080;2023-12-04T04:31:00;100206.63;;;1.43;100.00
36748;BME280;22716;51.556;5.080;2023-12-04T04:33:28;100213.50;;;1.44;100.00
36748;BME280;22716;51.556;5.080;2023-12-04T04:35:57;100202.31;;;1.42;100.00
36748;BME280;22716;51.556;5.080;2023-12-04T04:38:25;100197.97;;;1.41;100.00
36748;BME280;22716;51.556;5.080;2023-12-04T04:40:57;100190.19;;;1.38;100.00
36748;BME280;22716;51.556;5.080;2023-12-04T04:43:26;100191.91;;;1.38;100.00
36748;BME280;22716;51.556;5.080;2023-12-04T04:45:54;100196.31;;;1.43;100.00
36748;BME280;22716;51.556;5.080;2023-12-04T04:48:23;100196.31;;;1.43;100.00
36748;BME280;22716;51.556;5.080;2023-12-04T04:50:52;100196.31;;;1.45;100.00
36748;BME280;22716;51.556;5.080;2023-12-04T04:53:20;100198.94;;;1.46;100.00
36748;BME280;22716;51.556;5.080;2023-12-04T04:55:49;100193.78;;;1.46;100.00
36748;BME280;22716;51.556;5.080;2023-12-04T04:58:20;100191.25;;;1.49;100.00
36748;BME280;22716;51.556;5.080;2023-12-04T05:00:48;100189.44;;;1.47;100.00
36748;BME280;22716;51.556;5.080;2023-12-04T05:03:17;100189.50;;;1.50;100.00
36748;BME280;22716;51.556;5.080;2023-12-04T05:05:45;100193.88;;;1.54;100.00
36748;BME280;22716;51.556;5.080;2023-12-04T05:08:14;100172.28;;;1.49;100.00
36748;BME280;22716;51.556;5.080;2023-12-04T05:10:43;100173.22;;;1.52;100.00
36748;BME280;22716;51.556;5.080;2023-12-04T05:13:11;100168.06;;;1.54;100.00
36748;BME280;22716;51.556;5.080;2023-12-04T05:15:42;100155.16;;;1.52;100.00
36748;BME280;22716;51.556;5.080;2023-12-04T05:18:11;100157.78;;;1.57;100.00
36748;BME280;22716;51.556;5.080;2023-12-04T05:20:39;100150.03;;;1.55;100.00
36748;BME280;22716;51.556;5.080;2023-12-04T05:23:08;100151.72;;;1.55;100.00
36748;BME280;22716;51.556;5.080;2023-12-04T05:25:36;100139.69;;;1.55;100.00
36748;BME280;22716;51.556;5.080;2023-12-04T05:28:05;100141.41;;;1.56;100.00
36748;BME280;22716;51.556;5.080;2023-12-04T05:30:34;100143.06;;;1.53;100.00
36748;BME280;22716;51.556;5.080;2023-12-04T05:33:05;100142.28;;;1.55;100.00
36748;BME280;22716;51.556;5.080;2023-12-04T05:35:34;100146.63;;;1.59;100.00
36748;BME280;22716;51.556;5.080;2023-12-04T05:38:03;100139.75;;;1.58;100.00
36748;BME280;22716;51.556;5.080;2023-12-04T05:40:33;100140.63;;;1.60;100.00
36748;BME280;22716;51.556;5.080;2023-12-04T05:43:02;100139.81;;;1.64;100.00
36748;BME280;22716;51.556;5.080;2023-12-04T05:45:30;100132.94;;;1.65;100.00
36748;BME280;22716;51.556;5.080;2023-12-04T05:47:59;100131.22;;;1.65;100.00
36748;BME280;22716;51.556;5.080;2023-12-04T05:50:30;100114.91;;;1.68;100.00
36748;BME280;22716;51.556;5.080;2023-12-04T05:52:58;100137.31;;;1.70;100.00
36748;BME280;22716;51.556;5.080;2023-12-04T05:55:27;100112.34;;;1.71;100.00
36748;BME280;22716;51.556;5.080;2023-12-04T05:57:55;100081.16;;;1.54;100.00
36748;BME280;22716;51.556;5.080;2023-12-04T06:00:24;100114.16;;;1.77;100.00
36748;BME280;22716;51.556;5.080;2023-12-04T06:02:54;100103.81;;;1.75;100.00
36748;BME280;22716;51.556;5.080;2023-12-04T06:05:22;100118.56;;;1.84;100.00
36748;BME280;22716;51.556;5.080;2023-12-04T06:07:54;100105.63;;;1.84;100.00
36748;BME280;22716;51.556;5.080;2023-12-04T06:10:23;100099.66;;;1.86;100.00
36748;BME280;22716;51.556;5.080;2023-12-04T06:12:52;100101.41;;;1.89;100.00
36748;BME280;22716;51.556;5.080;2023-12-04T06:15:20;100107.47;;;1.91;100.00
36748;BME280;22716;51.556;5.080;2023-12-04T06:17:49;100100.56;;;1.91;100.00
36748;BME280;22716;51.556;5.080;2023-12-04T06:20:17;100088.50;;;1.90;100.00
36748;BME280;22716;51.556;5.080;2023-12-04T06:22:47;100090.25;;;1.93;100.00
36748;BME280;22716;51.556;5.080;2023-12-04T06:25:19;100089.44;;;1.95;100.00
36748;BME280;22716;51.556;5.080;2023-12-04T06:27:49;100085.09;;;1.94;100.00
36748;BME280;22716;51.556;5.080;2023-12-04T06:30:19;100084.25;;;1.97;100.00
36748;BME280;22716;51.556;5.080;2023-12-04T06:32:48;100079.13;;;1.98;100.00
36748;BME280;22716;51.556;5.080;2023-12-04T06:35:18;100088.63;;;2.01;100.00
36748;BME280;22716;51.556;5.080;2023-12-04T06:37:48;100071.31;;;1.92;100.00
36748;BME280;22716;51.556;5.080;2023-12-04T06:40:20;100069.59;;;1.93;100.00
36748;BME280;22716;51.556;5.080;2023-12-04T06:42:50;100076.56;;;2.00;100.00
36748;BME280;22716;51.556;5.080;2023-12-04T06:45:20;100069.59;;;1.94;100.00
36748;BME280;22716;51.556;5.080;2023-12-04T06:47:50;100064.47;;;1.96;100.00
36748;BME280;22716;51.556;5.080;2023-12-04T06:50:19;100067.91;;;1.98;100.00
36748;BME280;22716;51.556;5.080;2023-12-04T06:52:48;100066.19;;;1.97;100.00
36748;BME280;22716;51.556;5.080;2023-12-04T06:55:19;100062.72;;;1.95;100.00
36748;BME280;22716;51.556;5.080;2023-12-04T06:57:48;100053.25;;;1.94;100.00
36748;BME280;22716;51.556;5.080;2023-12-04T07:00:16;100048.97;;;1.96;100.00
36748;BME280;22716;51.556;5.080;2023-12-04T07:02:45;100051.53;;;1.96;100.00
36748;BME280;22716;51.556;5.080;2023-12-04T07:05:14;100045.50;;;1.97;100.00
36748;BME280;22716;51.556;5.080;2023-12-04T07:07:42;100037.75;;;1.95;100.00
36748;BME280;22716;51.556;5.080;2023-12-04T07:10:11;100037.75;;;1.95;100.00
36748;BME280;22716;51.556;5.080;2023-12-04T07:12:44;100034.28;;;1.92;100.00
36748;BME280;22716;51.556;5.080;2023-12-04T07:15:13;100051.56;;;1.97;100.00
36748;BME280;22716;51.556;5.080;2023-12-04T07:17:41;100048.97;;;1.96;100.00
36748;BME280;22716;51.556;5.080;2023-12-04T07:20:10;100044.66;;;1.96;100.00
36748;BME280;22716;51.556;5.080;2023-12-04T07:22:40;100032.59;;;1.94;100.00
36748;BME280;22716;51.556;5.080;2023-12-04T07:25:08;100037.75;;;1.94;100.00
36748;BME280;22716;51.556;5.080;2023-12-04T07:27:37;100037.75;;;1.95;100.00
36748;BME280;22716;51.556;5.080;2023-12-04T07:30:09;100036.00;;;1.94;100.00
36748;BME280;22716;51.556;5.080;2023-12-04T07:32:38;100034.31;;;1.95;100.00
36748;BME280;22716;51.556;5.080;2023-12-04T07:35:07;100033.41;;;1.91;100.00
36748;BME280;22716;51.556;5.080;2023-12-04T07:37:37;100042.91;;;1.94;100.00
36748;BME280;22716;51.556;5.080;2023-12-04T07:40:07;100034.31;;;1.95;100.00
36748;BME280;22716;51.556;5.080;2023-12-04T07:42:36;100033.44;;;1.94;100.00
36748;BME280;22716;51.556;5.080;2023-12-04T07:45:09;100039.47;;;1.93;100.00
36748;BME280;22716;51.556;5.080;2023-12-04T07:47:40;100045.47;;;1.92;100.00
36748;BME280;22716;51.556;5.080;2023-12-04T07:50:09;100051.53;;;1.96;100.00
36748;BME280;22716;51.556;5.080;2023-12-04T07:52:38;100032.53;;;1.89;100.00
36748;BME280;22716;51.556;5.080;2023-12-04T07:55:08;100042.06;;;1.93;100.00
36748;BME280;22716;51.556;5.080;2023-12-04T07:57:36;100037.69;;;1.89;100.00
36748;BME280;22716;51.556;5.080;2023-12-04T08:00:09;100040.31;;;1.92;100.00
36748;BME280;22716;51.556;5.080;2023-12-04T08:02:37;100036.88;;;1.95;100.00
36748;BME280;22716;51.556;5.080;2023-12-04T08:05:06;100037.75;;;1.97;100.00
36748;BME280;22716;51.556;5.080;2023-12-04T08:07:35;100023.09;;;1.93;100.00
36748;BME280;22716;51.556;5.080;2023-12-04T08:10:05;100023.09;;;1.93;100.00
36748;BME280;22716;51.556;5.080;2023-12-04T08:12:34;100010.16;;;1.90;100.00
36748;BME280;22716;51.556;5.080;2023-12-04T08:15:04;100021.41;;;1.98;100.00
36748;BME280;22716;51.556;5.080;2023-12-04T08:17:35;100014.50;;;1.97;100.00
36748;BME280;22716;51.556;5.080;2023-12-04T08:20:06;100011.06;;;1.95;100.00
36748;BME280;22716;51.556;5.080;2023-12-04T08:22:38;100014.50;;;1.94;100.00
36748;BME280;22716;51.556;5.080;2023-12-04T08:25:07;100008.47;;;1.95;100.00
36748;BME280;22716;51.556;5.080;2023-12-04T08:27:36;99995.56;;;1.93;100.00
36748;BME280;22716;51.556;5.080;2023-12-04T08:30:06;100007.66;;;1.99;100.00
36748;BME280;22716;51.556;5.080;2023-12-04T08:32:37;99995.59;;;1.98;100.00
36748;BME280;22716;51.556;5.080;2023-12-04T08:35:07;99995.59;;;1.98;100.00
36748;BME280;22716;51.556;5.080;2023-12-04T08:37:36;99985.25;;;1.98;100.00
36748;BME280;22716;51.556;5.080;2023-12-04T08:40:07;99986.97;;;1.96;100.00
36748;BME280;22716;51.556;5.080;2023-12-04T08:42:37;99981.78;;;1.96;100.00
36748;BME280;22716;51.556;5.080;2023-12-04T08:45:08;99978.34;;;1.97;100.00
36748;BME280;22716;51.556;5.080;2023-12-04T08:47:40;99975.75;;;1.97;100.00
36748;BME280;22716;51.556;5.080;2023-12-04T08:50:09;99970.63;;;1.98;100.00
36748;BME280;22716;51.556;5.080;2023-12-04T08:52:38;99971.47;;;1.96;100.00
36748;BME280;22716;51.556;5.080;2023-12-04T08:55:07;99973.22;;;1.98;100.00
36748;BME280;22716;51.556;5.080;2023-12-04T08:57:36;99963.72;;;1.96;100.00
36748;BME280;22716;51.556;5.080;2023-12-04T09:00:06;99967.16;;;1.98;100.00
36748;BME280;22716;51.556;5.080;2023-12-04T09:02:35;99963.75;;;2.00;100.00
36748;BME280;22716;51.556;5.080;2023-12-04T09:05:07;99972.41;;;2.02;100.00
36748;BME280;22716;51.556;5.080;2023-12-04T09:07:36;99971.53;;;2.02;100.00
36748;BME280;22716;51.556;5.080;2023-12-04T09:10:06;99970.66;;;2.03;100.00
36748;BME280;22716;51.556;5.080;2023-12-04T09:12:35;99968.09;;;2.06;100.00
36748;BME280;22716;51.556;5.080;2023-12-04T09:15:04;99975.88;;;2.09;100.00
36748;BME280;22716;51.556;5.080;2023-12-04T09:17:33;99976.78;;;2.11;100.00
36748;BME280;22716;51.556;5.080;2023-12-04T09:20:03;99969.03;;;2.12;100.00
36748;BME280;22716;51.556;5.080;2023-12-04T09:22:35;99965.59;;;2.13;100.00
36748;BME280;22716;51.556;5.080;2023-12-04T09:25:05;99966.47;;;2.15;100.00
36748;BME280;22716;51.556;5.080;2023-12-04T09:27:34;99965.66;;;2.19;100.00
36748;BME280;22716;51.556;5.080;2023-12-04T09:30:04;99945.81;;;2.14;100.00
36748;BME280;22716;51.556;5.080;2023-12-04T09:32:33;99960.50;;;2.19;100.00
36748;BME280;22716;51.556;5.080;2023-12-04T09:35:01;99964.78;;;2.20;100.00
36748;BME280;22716;51.556;5.080;2023-12-04T09:37:30;99965.69;;;2.22;100.00
36748;BME280;22716;51.556;5.080;2023-12-04T09:40:02;99960.53;;;2.22;100.00
36748;BME280;22716;51.556;5.080;2023-12-04T09:42:31;99954.47;;;2.23;100.00
36748;BME280;22716;51.556;5.080;2023-12-04T09:45:01;99955.38;;;2.25;100.00
36748;BME280;22716;51.556;5.080;2023-12-04T09:47:30;99951.97;;;2.28;100.00
36748;BME280;22716;51.556;5.080;2023-12-04T09:50:01;99945.06;;;2.30;100.00
36748;BME280;22716;51.556;5.080;2023-12-04T09:52:30;99949.44;;;2.34;100.00
36748;BME280;22716;51.556;5.080;2023-12-04T09:55:03;99931.28;;;2.30;100.00
36748;BME280;22716;51.556;5.080;2023-12-04T09:57:32;99943.41;;;2.38;100.00
36748;BME280;22716;51.556;5.080;2023-12-04T10:00:03;99946.91;;;2.40;100.00
36748;BME280;22716;51.556;5.080;2023-12-04T10:02:32;99939.19;;;2.46;100.00
36748;BME280;22716;51.556;5.080;2023-12-04T10:05:02;99940.91;;;2.47;100.00
36748;BME280;22716;51.556;5.080;2023-12-04T10:07:31;99931.44;;;2.49;100.00
36748;BME280;22716;51.556;5.080;2023-12-04T10:10:03;99930.59;;;2.52;100.00
36748;BME280;22716;51.556;5.080;2023-12-04T10:12:35;99925.47;;;2.58;100.00
36748;BME280;22716;51.556;5.080;2023-12-04T10:15:05;99918.59;;;2.60;100.00
36748;BME280;22716;51.556;5.080;2023-12-04T10:17:35;99920.31;;;2.59;100.00
36748;BME280;22716;51.556;5.080;2023-12-04T10:20:07;99910.00;;;2.61;100.00
36748;BME280;22716;51.556;5.080;2023-12-04T10:22:38;99916.91;;;2.63;100.00
36748;BME280;22716;51.556;5.080;2023-12-04T10:25:20;99907.41;;;2.65;100.00
36748;BME280;22716;51.556;5.080;2023-12-04T10:27:49;99897.97;;;2.69;100.00
36748;BME280;22716;51.556;5.080;2023-12-04T10:30:26;99892.72;;;2.61;100.00
36748;BME280;22716;51.556;5.080;2023-12-04T10:32:57;99897.94;;;2.67;100.00
36748;BME280;22716;51.556;5.080;2023-12-04T10:35:29;99886.75;;;2.67;100.00
36748;BME280;22716;51.556;5.080;2023-12-04T10:37:59;99879.00;;;2.68;100.00
36748;BME280;22716;51.556;5.080;2023-12-04T10:40:32;99868.69;;;2.73;100.00
36748;BME280;22716;51.556;5.080;2023-12-04T10:43:12;99870.41;;;2.77;100.00
36748;BME280;22716;51.556;5.080;2023-12-04T10:45:42;99862.69;;;2.78;100.00
36748;BME280;22716;51.556;5.080;2023-12-04T10:48:12;99861.84;;;2.84;100.00
36748;BME280;22716;51.556;5.080;2023-12-04T10:50:43;99860.13;;;2.86;100.00
36748;BME280;22716;51.556;5.080;2023-12-04T10:53:13;99849.78;;;2.89;100.00
36748;BME280;22716;51.556;5.080;2023-12-04T10:55:45;99850.66;;;2.94;100.00
36748;BME280;22716;51.556;5.080;2023-12-04T10:58:14;99854.97;;;2.92;100.00
36748;BME280;22716;51.556;5.080;2023-12-04T11:00:45;99842.03;;;2.95;100.00
36748;BME280;22716;51.556;5.080;2023-12-04T11:03:19;99845.50;;;2.96;100.00
36748;BME280;22716;51.556;5.080;2023-12-04T11:05:53;99844.63;;;3.00;100.00
36748;BME280;22716;51.556;5.080;2023-12-04T11:08:23;99847.22;;;2.97;100.00
36748;BME280;22716;51.556;5.080;2023-12-04T11:10:59;99840.28;;;2.91;100.00
36748;BME280;22716;51.556;5.080;2023-12-04T11:13:34;99830.81;;;2.95;100.00
36748;BME280;22716;51.556;5.080;2023-12-04T11:16:11;99829.09;;;2.94;100.00
36748;BME280;22716;51.556;5.080;2023-12-04T11:18:43;99823.06;;;2.93;100.00
36748;BME280;22716;51.556;5.080;2023-12-04T11:21:12;99825.69;;;2.96;100.00
36748;BME280;22716;51.556;5.080;2023-12-04T11:23:41;99816.19;;;2.98;100.00
36748;BME280;22716;51.556;5.080;2023-12-04T11:26:14;99822.25;;;3.02;100.00
36748;BME280;22716;51.556;5.080;2023-12-04T11:28:44;99810.16;;;3.01;100.00
36748;BME280;22716;51.556;5.080;2023-12-04T11:31:13;99817.91;;;2.98;100.00
36748;BME280;22716;51.556;5.080;2023-12-04T11:33:42;99803.22;;;2.92;100.00
36748;BME280;22716;51.556;5.080;2023-12-04T11:36:13;99795.47;;;2.95;100.00
36748;BME280;22716;51.556;5.080;2023-12-04T11:38:44;99789.44;;;2.95;100.00
36748;BME280;22716;51.556;5.080;2023-12-04T11:41:21;99783.41;;;2.97;100.00
36748;BME280;22716;51.556;5.080;2023-12-04T11:43:50;99760.06;;;2.88;100.00
36748;BME280;22716;51.556;5.080;2023-12-04T11:46:20;99770.47;;;2.99;100.00
36748;BME280;22716;51.556;5.080;2023-12-04T11:48:51;99763.56;;;3.01;100.00
36748;BME280;22716;51.556;5.080;2023-12-04T11:51:47;99767.88;;;3.00;100.00
36748;BME280;22716;51.556;5.080;2023-12-04T11:54:17;99758.38;;;2.98;100.00
36748;BME280;22716;51.556;5.080;2023-12-04T11:57:20;99754.94;;;3.00;100.00
36748;BME280;22716;51.556;5.080;2023-12-04T11:59:51;99750.63;;;2.98;100.00
36748;BME280;22716;51.556;5.080;2023-12-04T12:02:20;99738.53;;;2.88;100.00
36748;BME280;22716;51.556;5.080;2023-12-04T12:04:49;99728.16;;;2.83;100.00
36748;BME280;22716;51.556;5.080;2023-12-04T12:07:18;99735.09;;;2.92;100.00
36748;BME280;22716;51.556;5.080;2023-12-04T12:09:47;99743.72;;;2.88;100.00
36748;BME280;22716;51.556;5.080;2023-12-04T12:12:18;99685.88;;;2.58;100.00
36748;BME280;22716;51.556;5.080;2023-12-04T12:14:47;99721.25;;;2.77;100.00
36748;BME280;22716;51.556;5.080;2023-12-04T12:17:16;99717.81;;;2.78;100.00
36748;BME280;22716;51.556;5.080;2023-12-04T12:19:45;99719.53;;;2.81;100.00
36748;BME280;22716;51.556;5.080;2023-12-04T12:22:14;99708.31;;;2.80;100.00
36748;BME280;22716;51.556;5.080;2023-12-04T12:24:42;99705.72;;;2.82;100.00
36748;BME280;22716;51.556;5.080;2023-12-04T12:27:11;99704.03;;;2.84;100.00
36748;BME280;22716;51.556;5.080;2023-12-04T12:29:42;99657.41;;;2.63;100.00
36748;BME280;22716;51.556;5.080;2023-12-04T12:32:11;99697.13;;;2.85;100.00
36748;BME280;22716;51.556;5.080;2023-12-04T12:34:39;99698.88;;;2.90;100.00
36748;BME280;22716;51.556;5.080;2023-12-04T12:37:08;99696.25;;;2.89;100.00
36748;BME280;22716;51.556;5.080;2023-12-04T12:39:37;99691.13;;;2.90;100.00
36748;BME280;22716;51.556;5.080;2023-12-04T12:42:06;99691.13;;;2.93;100.00
36748;BME280;22716;51.556;5.080;2023-12-04T12:44:41;99685.94;;;2.95;100.00
36748;BME280;22716;51.556;5.080;2023-12-04T12:47:10;99677.31;;;2.99;100.00
36748;BME280;22716;51.556;5.080;2023-12-04T12:49:39;99677.31;;;2.97;100.00
36748;BME280;22716;51.556;5.080;2023-12-04T12:52:11;99663.50;;;2.97;100.00
36748;BME280;22716;51.556;5.080;2023-12-04T12:54:41;99673.84;;;2.97;100.00
36748;BME280;22716;51.556;5.080;2023-12-04T12:57:11;99659.19;;;2.93;100.00
36748;BME280;22716;51.556;5.080;2023-12-04T12:59:44;99654.88;;;2.95;100.00
36748;BME280;22716;51.556;5.080;2023-12-04T13:02:16;99640.22;;;2.83;100.00
36748;BME280;22716;51.556;5.080;2023-12-04T13:04:46;99655.75;;;2.97;100.00
36748;BME280;22716;51.556;5.080;2023-12-04T13:07:21;99652.31;;;2.96;100.00